Terminal Aerodrome Forecast
Issued by NWS Charleston, WV

Current Version | Previous Version | Graphics & Text | Print | Product List | Glossary On
Versions: 1 2 3 4 5 6 7 8 9 10 11 12 13 14 15 16 17 18 19 20 21 22 23 24
271
FTUS41 KRLX 270148 AAA
TAFEKN
TAF AMD
KEKN 270148Z 2702/2724 16008G12KT 6SM SHRA VCTS SCT025 OVC045CB
      TEMPO 2702/2704 4SM SHRA OVC025
     FM270400 17005KT 6SM SHRA SCT020 BKN035
     FM270800 21003KT 5SM BR OVC020
     FM271400 23008KT P6SM BKN035=

USA.gov is the U.S. government's official web portal to all federal, state and local government web resources and services.